createdAt,value
2023-05-05T00:07:19.717Z,80.10
2023-05-05T00:12:22.728Z,80.50
2023-05-05T00:17:25.351Z,80.60
2023-05-05T00:22:29.373Z,80.40
2023-05-05T00:27:32.034Z,80.70
2023-05-05T00:32:34.529Z,80.80
2023-05-05T00:37:38.450Z,81.60
2023-05-05T00:42:43.037Z,82.70
2023-05-05T00:47:49.324Z,84.00
2023-05-05T00:52:55.958Z,85.30
2023-05-05T00:57:59.385Z,84.90
2023-05-05T01:03:02.090Z,84.80
2023-05-05T01:08:29.199Z,86.10
2023-05-05T01:13:52.691Z,86.60
2023-05-05T01:19:14.661Z,88.50
2023-05-05T01:25:12.572Z,88.00
2023-05-05T01:30:50.168Z,89.40
2023-05-05T01:36:03.383Z,89.00
2023-05-05T01:41:15.114Z,88.90
2023-05-05T01:46:21.663Z,90.50
2023-05-05T01:51:28.472Z,90.10
2023-05-05T01:56:33.132Z,90.40
2023-05-05T02:01:40.188Z,90.70
2023-05-05T02:06:46.874Z,90.50
2023-05-05T02:11:50.465Z,91.10
2023-05-05T02:16:55.255Z,91.60
2023-05-05T02:22:00.187Z,91.00
2023-05-05T02:27:07.343Z,91.60
2023-05-05T02:32:23.805Z,91.50
2023-05-05T02:37:33.787Z,91.60
2023-05-05T02:42:41.422Z,91.50
2023-05-05T02:47:46.878Z,91.40
2023-05-05T02:52:51.054Z,91.30
2023-05-05T02:58:05.290Z,91.50
2023-05-05T03:03:18.833Z,91.00
2023-05-05T03:08:35.727Z,90.90
2023-05-05T03:13:43.503Z,91.30
2023-05-05T03:18:52.524Z,91.30
2023-05-05T03:23:58.231Z,91.20
2023-05-05T03:29:00.993Z,91.70
2023-05-05T03:34:07.326Z,92.80
2023-05-05T03:39:17.953Z,92.80
2023-05-05T03:44:21.224Z,93.10
2023-05-05T03:49:26.893Z,92.80
2023-05-05T03:54:31.251Z,92.60
2023-05-05T03:59:36.178Z,92.60
2023-05-05T04:04:39.230Z,92.20
2023-05-05T04:09:43.476Z,92.20
2023-05-05T04:14:47.265Z,91.60
2023-05-05T04:19:49.752Z,91.10
2023-05-05T04:24:53.881Z,90.90
2023-05-05T04:29:56.802Z,91.30
2023-05-05T04:35:03.163Z,90.70
2023-05-05T04:40:10.201Z,90.50
2023-05-05T04:45:14.192Z,91.00
2023-05-05T04:50:17.558Z,91.30
2023-05-05T04:55:22.162Z,91.20
2023-05-05T05:00:25.549Z,91.90
2023-05-05T05:05:31.875Z,91.70
2023-05-05T05:10:36.337Z,91.50
2023-05-05T05:15:38.871Z,91.00
2023-05-05T05:20:41.605Z,90.40
2023-05-05T05:25:46.297Z,90.60
2023-05-05T05:30:51.611Z,90.40
2023-05-05T05:35:54.348Z,88.80
2023-05-05T05:40:59.657Z,89.00
2023-05-05T05:46:02.552Z,88.20
2023-05-05T05:51:05.592Z,88.60
2023-05-05T05:56:13.877Z,88.50
2023-05-05T06:01:19.552Z,88.70
2023-05-05T06:06:22.931Z,87.50
2023-05-05T06:11:27.356Z,87.20
2023-05-05T06:16:30.585Z,87.50
2023-05-05T06:21:36.439Z,86.50
2023-05-05T06:26:41.113Z,86.30
2023-05-05T06:31:43.811Z,85.60
2023-05-05T06:36:46.675Z,84.90
2023-05-05T06:41:50.804Z,85.00
2023-05-05T06:46:54.757Z,82.70
2023-05-05T06:51:57.236Z,83.00
2023-05-05T06:57:01.384Z,82.90
2023-05-05T07:02:04.191Z,81.70
2023-05-05T07:07:06.990Z,82.10
2023-05-05T07:12:10.887Z,81.30
2023-05-05T07:17:13.450Z,81.00
2023-05-05T07:22:15.942Z,81.00
2023-05-05T07:27:20.381Z,81.30
2023-05-05T07:32:23.078Z,80.60
2023-05-05T07:37:26.909Z,79.40
2023-05-05T07:42:30.971Z,79.40
2023-05-05T07:47:34.029Z,78.50
2023-05-05T07:52:46.867Z,77.50
2023-05-05T07:57:56.111Z,78.10
2023-05-05T08:03:00.268Z,77.30
2023-05-05T08:08:03.378Z,76.20
2023-05-05T08:13:10.548Z,75.60
2023-05-05T08:18:14.294Z,74.70
2023-05-05T08:23:17.168Z,74.60
2023-05-05T08:28:21.309Z,72.70
2023-05-05T08:33:25.658Z,72.40
2023-05-05T08:38:28.688Z,71.60
2023-05-05T08:43:32.920Z,70.90
2023-05-05T08:48:39.319Z,70.70
2023-05-05T08:53:56.737Z,70.00
2023-05-05T08:59:02.537Z,69.70
2023-05-05T09:04:05.803Z,68.40
2023-05-05T09:09:09.510Z,69.80
2023-05-05T09:14:13.530Z,67.90
2023-05-05T09:19:16.287Z,66.50
2023-05-05T09:24:18.954Z,66.40
2023-05-05T09:29:23.551Z,65.90
2023-05-05T09:34:26.869Z,66.50
2023-05-05T09:39:29.664Z,66.70
2023-05-05T09:44:38.287Z,66.20
2023-05-05T09:49:41.000Z,65.30
2023-05-05T09:54:46.962Z,65.50
2023-05-05T09:59:57.792Z,63.80
2023-05-05T10:05:12.852Z,63.60
2023-05-05T10:10:17.476Z,63.60
2023-05-05T10:15:22.973Z,62.60
2023-05-05T10:20:33.065Z,62.30
2023-05-05T10:25:50.669Z,62.40
2023-05-05T10:31:00.474Z,62.10
2023-05-05T10:36:05.584Z,61.40
2023-05-05T10:41:10.404Z,61.20
2023-05-05T10:46:18.007Z,61.30
2023-05-05T10:51:43.335Z,60.40
2023-05-05T10:56:47.404Z,59.00
2023-05-05T11:01:51.514Z,58.90
2023-05-05T11:07:30.574Z,59.80
2023-05-05T11:13:12.412Z,59.20
2023-05-05T11:18:35.588Z,59.70
2023-05-05T11:23:43.011Z,58.70
2023-05-05T11:28:59.624Z,58.80
2023-05-05T11:34:27.238Z,58.80
2023-05-05T11:39:46.034Z,58.30
2023-05-05T11:44:49.831Z,56.80
2023-05-05T11:49:54.062Z,57.00
2023-05-05T11:55:02.194Z,56.30
2023-05-05T12:00:08.171Z,56.50
2023-05-05T12:05:19.630Z,57.10
2023-05-05T12:10:25.765Z,55.90
2023-05-05T12:15:30.322Z,56.60
2023-05-05T12:20:35.269Z,55.60
2023-05-05T12:25:39.508Z,54.80
2023-05-05T12:30:42.402Z,55.40
2023-05-05T12:35:46.749Z,54.90
2023-05-05T12:40:50.459Z,54.60
2023-05-05T12:46:04.479Z,52.90
2023-05-05T12:51:19.443Z,53.00
2023-05-05T12:56:36.450Z,52.60
2023-05-05T13:01:49.961Z,52.00
2023-05-05T13:07:10.817Z,51.90
2023-05-05T13:12:13.495Z,52.60
2023-05-05T13:17:16.189Z,52.00
2023-05-05T13:22:22.380Z,51.30
2023-05-05T13:27:25.079Z,51.40
2023-05-05T13:32:27.678Z,51.30
2023-05-05T13:37:31.881Z,51.30
2023-05-05T13:42:34.555Z,50.10
2023-05-05T13:47:37.225Z,50.00
2023-05-05T13:52:41.170Z,50.40
2023-05-05T13:57:44.145Z,50.40
2023-05-05T14:02:46.929Z,50.20
2023-05-05T14:07:51.013Z,49.90
2023-05-05T14:12:53.549Z,50.30
2023-05-05T14:17:56.741Z,49.40
2023-05-05T14:23:00.666Z,48.70
2023-05-05T14:28:03.314Z,49.30
2023-05-05T14:33:09.465Z,48.80
2023-05-05T14:38:13.462Z,48.70
2023-05-05T14:43:16.421Z,48.00
2023-05-05T14:48:19.215Z,49.20
2023-05-05T14:53:23.081Z,51.00
2023-05-05T14:58:25.701Z,50.70
2023-05-05T15:03:28.548Z,52.80
2023-05-05T15:08:32.881Z,54.20
2023-05-05T15:13:35.383Z,53.80
2023-05-05T15:18:38.104Z,53.90
2023-05-05T15:23:42.355Z,53.50
2023-05-05T15:28:45.198Z,54.20
2023-05-05T15:33:47.777Z,54.60
2023-05-05T15:38:51.878Z,55.10
2023-05-05T15:43:54.696Z,55.30
2023-05-05T15:48:57.314Z,55.70
2023-05-05T15:54:01.160Z,55.40
2023-05-05T15:59:03.633Z,56.20
2023-05-05T16:04:06.423Z,56.40
2023-05-05T16:09:10.576Z,56.90
2023-05-05T16:14:13.237Z,57.30
2023-05-05T16:19:16.134Z,57.10
2023-05-05T16:24:20.261Z,57.20
2023-05-05T16:29:22.677Z,56.80
2023-05-05T16:34:28.408Z,56.90
2023-05-05T16:39:32.352Z,56.70
2023-05-05T16:44:34.958Z,56.10
2023-05-05T16:49:37.360Z,56.50
2023-05-05T16:54:41.367Z,57.50
2023-05-05T16:59:44.257Z,57.40
2023-05-05T17:04:46.984Z,58.20
2023-05-05T17:09:51.101Z,57.80
2023-05-05T17:14:56.142Z,58.00
2023-05-05T17:19:58.978Z,58.40
2023-05-05T17:25:04.092Z,58.90
2023-05-05T17:30:09.333Z,58.40
2023-05-05T17:35:11.947Z,59.20
2023-05-05T17:40:15.990Z,59.30
2023-05-05T17:45:18.760Z,59.70
2023-05-05T17:50:21.446Z,59.50
2023-05-05T17:55:25.432Z,60.10
2023-05-05T18:00:28.900Z,60.90
2023-05-05T18:05:31.804Z,62.00
2023-05-05T18:10:35.920Z,61.40
2023-05-05T18:15:38.500Z,61.20
2023-05-05T18:20:41.124Z,62.00
2023-05-05T18:25:45.139Z,62.60
2023-05-05T18:30:47.669Z,62.80
2023-05-05T18:35:50.550Z,63.20
2023-05-05T18:40:54.961Z,64.00
2023-05-05T18:45:57.544Z,64.60
2023-05-05T18:51:01.711Z,65.30
2023-05-05T18:56:05.886Z,65.30
2023-05-05T19:01:08.505Z,65.30
2023-05-05T19:06:11.030Z,64.50
2023-05-05T19:11:15.107Z,64.70
2023-05-05T19:16:18.350Z,66.00
2023-05-05T19:21:20.822Z,66.40
2023-05-05T19:26:24.847Z,66.30
2023-05-05T19:31:27.635Z,66.70
2023-05-05T19:36:31.719Z,66.20
2023-05-05T19:41:35.845Z,67.10
2023-05-05T19:46:38.490Z,67.60
2023-05-05T19:51:41.641Z,67.30
2023-05-05T19:56:45.558Z,68.20
2023-05-05T20:01:48.322Z,67.90
2023-05-05T20:06:50.815Z,68.20
2023-05-05T20:11:56.040Z,68.60
2023-05-05T20:16:59.014Z,68.30
2023-05-05T20:22:01.458Z,69.70
2023-05-05T20:27:05.565Z,69.40
2023-05-05T20:32:08.228Z,70.40
2023-05-05T20:37:11.826Z,71.20
2023-05-05T20:42:17.669Z,71.60
2023-05-05T20:47:20.162Z,71.50
2023-05-05T20:52:22.608Z,71.60
2023-05-05T20:57:26.499Z,70.60
2023-05-05T21:02:29.053Z,70.50
2023-05-05T21:07:33.005Z,70.80
2023-05-05T21:12:37.326Z,71.10
2023-05-05T21:17:39.752Z,70.70
2023-05-05T21:22:42.405Z,70.70
2023-05-05T21:27:47.389Z,70.80
2023-05-05T21:32:49.845Z,70.90
2023-05-05T21:37:52.286Z,71.40
2023-05-05T21:42:56.217Z,70.90
2023-05-05T21:47:58.811Z,70.60
2023-05-05T21:53:01.510Z,70.80
2023-05-05T21:58:05.380Z,70.30
2023-05-05T22:03:08.345Z,69.60
2023-05-05T22:08:10.872Z,69.70
2023-05-05T22:13:14.797Z,69.50
2023-05-05T22:18:17.292Z,69.40
2023-05-05T22:23:19.884Z,69.30
2023-05-05T22:28:23.868Z,68.60
2023-05-05T22:33:26.655Z,67.90
2023-05-05T22:38:29.094Z,67.30
2023-05-05T22:43:32.908Z,67.50
2023-05-05T22:48:35.336Z,68.50
2023-05-05T22:53:39.012Z,68.00
2023-05-05T22:58:42.888Z,68.00
2023-05-05T23:03:45.336Z,67.60
2023-05-05T23:08:47.839Z,68.40
2023-05-05T23:13:51.800Z,68.40
2023-05-05T23:18:54.365Z,67.80
2023-05-05T23:23:57.071Z,67.80
2023-05-05T23:29:01.063Z,68.10
2023-05-05T23:34:03.757Z,67.80
2023-05-05T23:39:06.412Z,67.70
2023-05-05T23:44:10.590Z,67.50
2023-05-05T23:49:13.185Z,67.40
2023-05-05T23:54:15.777Z,67.00
2023-05-05T23:59:19.901Z,66.90
